Flight Track Log - Related Links

Times and Time Zones

All times are in EDT time to prevent confusion due to time zone crossing. See the CTL17 flight status page for this flight to view local times or setup timezone preferences in your user account.

Time Position Orientation Groundspeed Altitude Reporting Facility
EDT Latitude Longitude Course Direction KTS MPH feet Rate Location/Type
Mon 03:56:46 PM 42.6653 -83.4069 61° Northeast 115 132 1,400  Level Cleveland Center
Mon 03:57:37 PM 42.6764 -83.3792 61° Northeast 135 155 2,100 824 Climbing Cleveland Center
Mon 03:59:00 PM 42.7234 -83.3964 345° North  Level FlightAware Approximate
Mon 04:06:00 PM 42.9561 -83.4283 321° Northwest  Level FlightAware Approximate
Mon 04:07:00 PM 42.9835 -83.4585 321° Northwest  Level FlightAware Approximate
Mon 04:08:00 PM 43.0109 -83.4887 321° Northwest  Level FlightAware Approximate
Mon 04:09:00 PM 43.0383 -83.5189 321° Northwest  Level FlightAware Approximate
Mon 04:10:00 PM 43.0656 -83.5491 321° Northwest  Level FlightAware Approximate
Mon 04:11:00 PM 43.0930 -83.5794 321° Northwest  Level FlightAware Approximate
Mon 04:12:00 PM 43.1203 -83.6097 321° Northwest  Level FlightAware Approximate
Mon 04:13:00 PM 43.1477 -83.6400 321° Northwest  Level FlightAware Approximate
Mon 04:14:00 PM 43.1750 -83.6704 321° Northwest  Level FlightAware Approximate
Mon 04:15:00 PM 43.2024 -83.7008 321° Northwest  Level FlightAware Approximate
Mon 04:16:00 PM 43.2292 -83.7319 318° Northwest  Level FlightAware Approximate
Mon 04:17:00 PM 43.2555 -83.7640 318° Northwest  Level FlightAware Approximate
Mon 04:18:00 PM 43.2818 -83.7961 318° Northwest  Level FlightAware Approximate
Mon 04:19:00 PM 43.3081 -83.8282 318° Northwest  Level FlightAware Approximate
Mon 04:20:00 PM 43.3344 -83.8604 318° Northwest  Level FlightAware Approximate
Mon 04:21:00 PM 43.3606 -83.8926 318° Northwest  Level FlightAware Approximate
Mon 04:22:00 PM 43.3886 -83.9219 324° Northwest  Level FlightAware Approximate
Mon 04:23:00 PM 43.4171 -83.9503 324° Northwest  Level FlightAware Approximate
Mon 04:24:00 PM 43.4455 -83.9788 324° Northwest  Level FlightAware Approximate
Mon 04:25:00 PM 43.4740 -84.0073 324° Northwest  Level FlightAware Approximate
Mon 04:26:00 PM 43.5017 -84.0368 305° West  Level FlightAware Approximate
Mon 04:27:00 PM 43.5167 -84.0667 305° West  Level FlightAware Approximate
Mon 04:28:00 PM 43.5329 -84.0796 305° West  Level Estimated

Login

Don't have an account? Register now (free) for customized features, flight alerts, and more!